Dades meteomassalio
Diari Summary for Octubre 9, 2017 Units:  English    Metric   Both
« Previous Day
Next Day »
Diari Semanal Mensual Anual Personalitzat
  Maxima: Minima: Mijana:
Temperatura: TemperatureC °F 2.2 °F 12.2 °F
Rosada: DewpointC °F -2.8 °F 1.2 °F
Humitat: Humidity % 27 % 50 %
Velocitat del vent: WindSpeedKMH mph 0.0 mph 3.9 mph
Racha vent: WindSpeedGustKMH mph - -
Vent:- - SW
Pressio: PressurehPa in 1020.9 in -
Pluja: 0.0 in    
Historical Graphs
 
 
Tabular Data for Octubre 9, 2017
Time Temperature Dew Point Pressure Wind Wind Speed Wind Gust Humidity Rainfall Rate (Hourly) solar Conditions
TemperatureC °F DewpointC °F PressurehPa in Calm     Humidity % HourlyPrecipMM in SolarRadiationWatts/m^2 W/m2 Conditions
00:06 6.1 °F -2.5 °F 1022.2 in ESE 4.8 mph 4.8 mph 54 % 0.0 in 0.0 W/m2 CLR
00:11 5.6 °F -2.8 °F 1022.2 in Calm     55 % 0.0 in 0.0 W/m2 CLR
00:16 5.6 °F -2.8 °F 1022.6 in Calm     55 % 0.0 in 0.0 W/m2 CLR
00:21 5.6 °F -2.6 °F 1022.6 in Calm     56 % 0.0 in 0.0 W/m2 CLR
00:26 5.6 °F -2.3 °F 1022.6 in Calm     57 % 0.0 in 0.0 W/m2 CLR
00:31 5.6 °F -2.3 °F 1022.6 in Calm     57 % 0.0 in 0.0 W/m2 CLR
00:37 5.6 °F -2.3 °F 1022.2 in Calm     57 % 0.0 in 0.0 W/m2 CLR
00:42 5.6 °F -2.3 °F 1022.6 in Calm     57 % 0.0 in 0.0 W/m2 CLR
00:47 5.6 °F -2.3 °F 1022.2 in Calm     57 % 0.0 in 0.0 W/m2 CLR
00:52 6.1 °F -1.6 °F 1022.6 in Calm     58 % 0.0 in 0.0 W/m2 CLR
00:57 6.1 °F -1.8 °F 1022.2 in Calm     57 % 0.0 in 0.0 W/m2 CLR
01:02 6.1 °F -1.6 °F 1022.6 in Calm     58 % 0.0 in 0.0 W/m2 CLR
01:07 6.1 °F -1.6 °F 1022.6 in Calm     58 % 0.0 in 0.0 W/m2 CLR
01:12 6.1 °F -1.6 °F 1022.6 in Calm     58 % 0.0 in 0.0 W/m2 CLR
01:17 5.6 °F -1.8 °F 1022.6 in Calm     59 % 0.0 in 0.0 W/m2 CLR
01:22 5.6 °F -1.8 °F 1022.6 in Calm     59 % 0.0 in 0.0 W/m2 CLR
01:27 5.6 °F -1.6 °F 1022.6 in Calm     60 % 0.0 in 0.0 W/m2 CLR
01:32 5.6 °F -1.6 °F 1022.6 in Calm     60 % 0.0 in 0.0 W/m2 CLR
01:37 5.0 °F -2.1 °F 1022.6 in Calm     60 % 0.0 in 0.0 W/m2 CLR
01:42 5.0 °F -1.9 °F 1022.6 in Calm     61 % 0.0 in 0.0 W/m2 CLR
01:47 5.0 °F -1.7 °F 1022.6 in Calm     62 % 0.0 in 0.0 W/m2 CLR
01:52 5.0 °F -1.7 °F 1022.6 in Calm     62 % 0.0 in 0.0 W/m2 CLR
01:57 5.0 °F -1.7 °F 1022.6 in Calm     62 % 0.0 in 0.0 W/m2 CLR
02:07 4.4 °F -2.0 °F 1022.6 in Calm     63 % 0.0 in 0.0 W/m2 CLR
02:12 4.4 °F -2.0 °F 1022.6 in Calm     63 % 0.0 in 0.0 W/m2 CLR
02:17 4.4 °F -1.8 °F 1022.6 in Calm     64 % 0.0 in 0.0 W/m2 CLR
02:22 4.4 °F -1.6 °F 1022.6 in Calm     65 % 0.0 in 0.0 W/m2 CLR
02:27 3.9 °F -2.1 °F 1022.6 in Calm     65 % 0.0 in 0.0 W/m2 CLR
02:32 3.9 °F -2.1 °F 1022.6 in Calm     65 % 0.0 in 0.0 W/m2 CLR
02:37 3.9 °F -2.3 °F 1022.6 in SE 5.6 mph 5.6 mph 64 % 0.0 in 0.0 W/m2 CLR
02:42 3.9 °F -2.5 °F 1022.6 in Calm     63 % 0.0 in 0.0 W/m2 CLR
02:47 3.9 °F -2.3 °F 1022.6 in Calm     64 % 0.0 in 0.0 W/m2 CLR
02:52 3.9 °F -2.3 °F 1022.6 in Calm     64 % 0.0 in 0.0 W/m2 CLR
03:02 3.9 °F -2.3 °F 1022.6 in Calm     64 % 0.0 in 0.0 W/m2 CLR
03:07 3.9 °F -2.3 °F 1022.6 in Calm     64 % 0.0 in 0.0 W/m2 CLR
03:12 3.9 °F -2.3 °F 1022.6 in Calm     64 % 0.0 in 0.0 W/m2 CLR
03:17 3.9 °F -2.3 °F 1022.6 in Calm     64 % 0.0 in 0.0 W/m2 CLR
03:22 3.9 °F -2.3 °F 1022.6 in Calm     64 % 0.0 in 0.0 W/m2 CLR
03:27 3.9 °F -2.1 °F 1022.6 in Calm     65 % 0.0 in 0.0 W/m2 CLR
03:32 3.9 °F -2.1 °F 1022.2 in Calm     65 % 0.0 in 0.0 W/m2 CLR
03:37 3.9 °F -2.1 °F 1022.2 in Calm     65 % 0.0 in 0.0 W/m2 CLR
03:42 3.9 °F -2.1 °F 1022.2 in Calm     65 % 0.0 in 0.0 W/m2 CLR
03:47 3.9 °F -1.9 °F 1022.2 in Calm     66 % 0.0 in 0.0 W/m2 CLR
03:53 3.3 °F -2.4 °F 1022.2 in Calm     66 % 0.0 in 0.0 W/m2 CLR
03:58 3.3 °F -2.4 °F 1022.2 in Calm     66 % 0.0 in 0.0 W/m2 CLR
04:03 3.3 °F -2.4 °F 1022.2 in Calm     66 % 0.0 in 0.0 W/m2 CLR
04:08 3.3 °F -2.4 °F 1022.2 in Calm     66 % 0.0 in 0.0 W/m2 CLR
04:13 3.3 °F -2.2 °F 1022.2 in Calm     67 % 0.0 in 0.0 W/m2 CLR
04:18 3.3 °F -2.2 °F 1022.2 in Calm     67 % 0.0 in 0.0 W/m2 CLR
04:23 3.3 °F -2.2 °F 1022.2 in Calm     67 % 0.0 in 0.0 W/m2 CLR
04:28 3.3 °F -2.2 °F 1022.2 in Calm     67 % 0.0 in 0.0 W/m2 CLR
04:33 3.3 °F -2.4 °F 1022.2 in Calm     66 % 0.0 in 0.0 W/m2 CLR
04:38 3.3 °F -2.2 °F 1022.2 in Calm     67 % 0.0 in 0.0 W/m2 CLR
04:43 3.3 °F -2.2 °F 1022.2 in Calm     67 % 0.0 in 0.0 W/m2 CLR
04:48 3.3 °F -2.2 °F 1022.6 in Calm     67 % 0.0 in 0.0 W/m2 CLR
04:53 2.8 °F -2.7 °F 1022.6 in Calm     67 % 0.0 in 0.0 W/m2 CLR
04:58 2.8 °F -2.6 °F 1022.6 in Calm     68 % 0.0 in 0.0 W/m2 CLR
05:03 2.8 °F -2.6 °F 1022.6 in Calm     68 % 0.0 in 0.0 W/m2 CLR
05:08 2.8 °F -2.6 °F 1022.6 in Calm     68 % 0.0 in 0.0 W/m2 CLR
05:14 2.8 °F -2.6 °F 1022.6 in Calm     68 % 0.0 in 0.0 W/m2 CLR
05:23 2.8 °F -2.6 °F 1022.6 in Calm     68 % 0.0 in 0.0 W/m2 CLR
05:26 2.8 °F -2.6 °F 1022.6 in Calm     68 % 0.0 in 0.0 W/m2 CLR
05:28 2.8 °F -2.6 °F 1022.6 in Calm     68 % 0.0 in 0.0 W/m2 CLR
05:33 2.8 °F -2.3 °F 1022.6 in Calm     69 % 0.0 in 0.0 W/m2 CLR
05:35 2.8 °F -2.3 °F 1022.6 in Calm     69 % 0.0 in 0.0 W/m2 CLR
05:40 2.8 °F -2.3 °F 1022.6 in Calm     69 % 0.0 in 0.0 W/m2 CLR
05:45 2.8 °F -2.3 °F 1022.6 in Calm     69 % 0.0 in 0.0 W/m2 CLR
05:50 2.8 °F -2.3 °F 1022.6 in Calm     69 % 0.0 in 0.0 W/m2 CLR
06:05 2.8 °F -2.3 °F 1022.6 in Calm     69 % 0.0 in 0.0 W/m2 CLR
06:10 2.8 °F -2.2 °F 1022.9 in Calm     70 % 0.0 in 0.0 W/m2 CLR
06:15 2.8 °F -2.2 °F 1022.9 in Calm     70 % 0.0 in 0.0 W/m2 CLR
06:20 2.2 °F -2.7 °F 1022.9 in Calm     70 % 0.0 in 0.0 W/m2 CLR
06:25 2.2 °F -2.7 °F 1022.9 in Calm     70 % 0.0 in 0.0 W/m2 CLR
06:30 2.2 °F -2.7 °F 1022.9 in Calm     70 % 0.0 in 0.0 W/m2 CLR
06:35 2.8 °F -2.2 °F 1022.9 in Calm     70 % 0.0 in 0.0 W/m2 CLR
06:40 2.8 °F -2.2 °F 1022.9 in Calm     70 % 0.0 in 0.0 W/m2 CLR
06:45 2.8 °F -2.2 °F 1022.6 in Calm     70 % 0.0 in 0.0 W/m2 CLR
06:50 2.8 °F -1.9 °F 1022.6 in Calm     71 % 0.0 in 0.0 W/m2 CLR
06:55 2.8 °F -1.9 °F 1022.6 in Calm     71 % 0.0 in 0.0 W/m2 CLR
07:00 2.8 °F -1.9 °F 1022.6 in Calm     71 % 0.0 in 0.0 W/m2 CLR
07:05 2.8 °F -1.9 °F 1022.6 in Calm     71 % 0.0 in 0.0 W/m2 CLR
07:10 2.8 °F -1.8 °F 1022.6 in Calm     72 % 0.0 in 0.0 W/m2 CLR
07:15 2.8 °F -1.8 °F 1022.6 in Calm     72 % 0.0 in 0.0 W/m2 CLR
07:20 2.2 °F -2.3 °F 1022.6 in Calm     72 % 0.0 in 0.0 W/m2 CLR
07:25 2.2 °F -2.1 °F 1022.6 in Calm     73 % 0.0 in 0.0 W/m2 CLR
07:30 2.2 °F -2.1 °F 1022.9 in Calm     73 % 0.0 in 0.0 W/m2 CLR
07:36 2.2 °F -2.1 °F 1022.6 in Calm     73 % 0.0 in 0.0 W/m2 CLR
07:40 2.2 °F -2.1 °F 1022.9 in North 8.0 mph 8.0 mph 73 % 0.0 in 0.0 W/m2 CLR
07:51 2.2 °F -1.9 °F 1022.9 in Calm     74 % 0.0 in 0.0 W/m2 CLR
07:56 2.2 °F -2.1 °F 1022.9 in Calm     73 % 0.0 in 0.0 W/m2 CLR
08:00 2.2 °F -2.1 °F 1022.9 in Calm     73 % 0.0 in 0.0 W/m2 OVC
08:05 2.2 °F -1.9 °F 1022.9 in Calm     74 % 0.0 in 5.0 W/m2 OVC
08:10 2.2 °F -1.9 °F 1022.9 in Calm     74 % 0.0 in 7.0 W/m2 BKN
08:16 2.2 °F -1.9 °F 1022.9 in Calm     74 % 0.0 in 11.0 W/m2 BKN
08:21 2.2 °F -2.1 °F 1023.2 in Calm     73 % 0.0 in 12.0 W/m2 BKN
08:26 2.2 °F -2.5 °F 1023.2 in Calm     71 % 0.0 in 14.0 W/m2 BKN
08:31 2.8 °F -2.2 °F 1023.2 in Calm     70 % 0.0 in 18.0 W/m2 BKN
08:36 2.8 °F -2.7 °F 1023.2 in Calm     67 % 0.0 in 25.0 W/m2 BKN
08:46 2.8 °F -2.3 °F 1023.6 in Calm     69 % 0.0 in 49.0 W/m2 SCT
08:51 3.3 °F -1.8 °F 1023.6 in Calm     69 % 0.0 in 51.0 W/m2 SCT
08:56 3.3 °F -2.0 °F 1023.6 in Calm     68 % 0.0 in 72.0 W/m2 FEW
09:01 3.3 °F -2.4 °F 1023.6 in Calm     66 % 0.0 in 83.0 W/m2 FEW
09:06 3.9 °F -2.1 °F 1023.6 in Calm     65 % 0.0 in 91.0 W/m2 FEW
09:11 4.4 °F -1.8 °F 1023.6 in Calm     64 % 0.0 in 109.0 W/m2 CLR
09:16 4.4 °F -1.8 °F 1023.6 in Calm     64 % 0.0 in 142.0 W/m2 CLR
09:21 5.0 °F -1.7 °F 1023.6 in Calm     62 % 0.0 in 114.0 W/m2 CLR
09:26 5.6 °F -1.4 °F 1023.6 in Calm     61 % 0.0 in 183.0 W/m2 CLR
09:31 5.6 °F -1.6 °F 1023.6 in Calm     60 % 0.0 in 200.0 W/m2 CLR
09:36 6.7 °F -0.8 °F 1023.6 in Calm     59 % 0.0 in 218.0 W/m2 CLR
09:41 6.7 °F -1.0 °F 1023.9 in Calm     58 % 0.0 in 234.0 W/m2 CLR
09:46 7.2 °F -1.0 °F 1023.9 in Calm     56 % 0.0 in 251.0 W/m2 CLR
09:51 8.3 °F 0.3 °F 1023.9 in Calm     57 % 0.0 in 267.0 W/m2 CLR
09:56 9.4 °F 0.6 °F 1023.9 in SW 13.0 mph 13.0 mph 54 % 0.0 in 283.0 W/m2 CLR
10:01 10.0 °F 0.1 °F 1023.9 in WSW 14.8 mph 14.8 mph 50 % 0.0 in 299.0 W/m2 CLR
10:11 12.8 °F 1.7 °F 1024.3 in WSW 16.7 mph 16.7 mph 47 % 0.0 in 329.0 W/m2 CLR
10:16 13.9 °F 2.8 °F 1023.9 in SW 13.0 mph 13.0 mph 47 % 0.0 in 341.0 W/m2 CLR
10:21 14.4 °F 3.3 °F 1023.9 in WSW 16.7 mph 16.7 mph 47 % 0.0 in 355.0 W/m2 CLR
10:26 15.0 °F 3.4 °F 1023.9 in SW 11.1 mph 11.1 mph 46 % 0.0 in 367.0 W/m2 CLR
10:31 15.6 °F 3.7 °F 1023.9 in SSW 16.7 mph 16.7 mph 45 % 0.0 in 385.0 W/m2 CLR
10:36 16.1 °F 3.8 °F 1024.3 in SSW 16.7 mph 16.7 mph 44 % 0.0 in 399.0 W/m2 CLR
10:41 16.1 °F 4.2 °F 1024.3 in WSW 13.0 mph 13.0 mph 45 % 0.0 in 411.0 W/m2 CLR
10:46 16.1 °F 3.8 °F 1024.3 in SW 11.3 mph 11.3 mph 44 % 0.0 in 424.0 W/m2 CLR
10:51 16.7 °F 4.3 °F 1023.9 in SW 14.8 mph 14.8 mph 44 % 0.0 in 438.0 W/m2 CLR
10:56 16.7 °F 4.3 °F 1023.9 in SW 9.3 mph 9.3 mph 44 % 0.0 in 450.0 W/m2 CLR
11:01 16.7 °F 4.0 °F 1023.9 in SSW 11.3 mph 11.3 mph 43 % 0.0 in 462.0 W/m2 CLR
11:06 16.7 °F 4.0 °F 1023.9 in SW 7.4 mph 7.4 mph 43 % 0.0 in 475.0 W/m2 CLR
11:11 17.2 °F 4.5 °F 1023.9 in SSW 13.0 mph 13.0 mph 43 % 0.0 in 487.0 W/m2 CLR
11:16 17.2 °F 4.5 °F 1023.9 in SW 11.1 mph 11.1 mph 43 % 0.0 in 501.0 W/m2 CLR
11:21 17.2 °F 4.5 °F 1023.9 in SSW 11.1 mph 11.1 mph 43 % 0.0 in 510.0 W/m2 CLR
11:26 17.2 °F 4.8 °F 1023.9 in SSE 14.8 mph 14.8 mph 44 % 0.0 in 520.0 W/m2 CLR
11:31 17.8 °F 5.0 °F 1023.9 in SSW 16.7 mph 16.7 mph 43 % 0.0 in 531.0 W/m2 CLR
11:36 17.8 °F 5.0 °F 1023.9 in SSW 16.7 mph 16.7 mph 43 % 0.0 in 541.0 W/m2 CLR
11:41 18.3 °F 5.2 °F 1023.9 in SSW 14.8 mph 14.8 mph 42 % 0.0 in 552.0 W/m2 CLR
11:46 18.3 °F 5.2 °F 1023.9 in WSW 13.0 mph 13.0 mph 42 % 0.0 in 561.0 W/m2 CLR
11:51 18.3 °F 5.2 °F 1023.9 in SW 9.7 mph 9.7 mph 42 % 0.0 in 570.0 W/m2 CLR
11:56 18.3 °F 4.8 °F 1023.9 in SSW 9.3 mph 9.3 mph 41 % 0.0 in 578.0 W/m2 CLR
12:01 18.9 °F 5.0 °F 1023.9 in SSW 11.1 mph 11.1 mph 40 % 0.0 in 585.0 W/m2 CLR
12:06 19.4 °F 5.5 °F 1023.9 in South 14.8 mph 14.8 mph 40 % 0.0 in 596.0 W/m2 CLR
12:11 19.4 °F 5.5 °F 1023.9 in South 18.5 mph 18.5 mph 40 % 0.0 in 603.0 W/m2 CLR
12:16 20.0 °F 6.0 °F 1023.9 in SW 18.5 mph 18.5 mph 40 % 0.0 in 610.0 W/m2 CLR
12:21 20.0 °F 6.0 °F 1023.6 in SW 14.5 mph 14.5 mph 40 % 0.0 in 619.0 W/m2 CLR
12:26 20.0 °F 5.6 °F 1023.6 in SSW 11.3 mph 11.3 mph 39 % 0.0 in 624.0 W/m2 CLR
12:31 20.6 °F 6.5 °F 1023.6 in South 16.7 mph 16.7 mph 40 % 0.0 in 631.0 W/m2 CLR
12:36 20.6 °F 5.7 °F 1023.6 in SSW 14.8 mph 14.8 mph 38 % 0.0 in 635.0 W/m2 CLR
12:41 21.1 °F 6.2 °F 1023.6 in SSW 18.5 mph 18.5 mph 38 % 0.0 in 642.0 W/m2 CLR
12:46 20.6 °F 6.1 °F 1023.6 in SW 14.8 mph 14.8 mph 39 % 0.0 in 647.0 W/m2 CLR
12:51 21.1 °F 6.2 °F 1023.6 in South 18.5 mph 18.5 mph 38 % 0.0 in 652.0 W/m2 CLR
12:56 21.1 °F 6.2 °F 1023.6 in SSW 13.0 mph 13.0 mph 38 % 0.0 in 656.0 W/m2 CLR
13:01 21.1 °F 6.2 °F 1023.6 in SW 18.5 mph 18.5 mph 38 % 0.0 in 659.0 W/m2 CLR
13:06 21.7 °F 6.7 °F 1023.6 in SSW 22.2 mph 22.2 mph 38 % 0.0 in 663.0 W/m2 CLR
13:11 21.7 °F 6.3 °F 1023.6 in WSW 11.1 mph 11.1 mph 37 % 0.0 in 668.0 W/m2 CLR
13:16 21.7 °F 6.3 °F 1023.2 in SW 16.7 mph 16.7 mph 37 % 0.0 in 670.0 W/m2 CLR
13:21 21.7 °F 5.9 °F 1023.2 in SW 18.5 mph 18.5 mph 36 % 0.0 in 673.0 W/m2 CLR
13:26 22.2 °F 6.4 °F 1023.2 in SSW 11.1 mph 11.1 mph 36 % 0.0 in 675.0 W/m2 CLR
13:31 21.7 °F 5.9 °F 1023.2 in SSW 13.0 mph 13.0 mph 36 % 0.0 in 677.0 W/m2 CLR
13:36 22.2 °F 6.4 °F 1023.2 in WSW 14.8 mph 14.8 mph 36 % 0.0 in 682.0 W/m2 CLR
13:41 22.2 °F 5.6 °F 1022.9 in SW 14.5 mph 14.5 mph 34 % 0.0 in 679.0 W/m2 CLR
13:46 22.2 °F 6.0 °F 1022.9 in WSW 11.1 mph 11.1 mph 35 % 0.0 in 679.0 W/m2 CLR
13:51 22.8 °F 6.1 °F 1022.9 in WSW 12.9 mph 12.9 mph 34 % 0.0 in 679.0 W/m2 CLR
13:56 22.8 °F 5.7 °F 1022.6 in SW 14.8 mph 14.8 mph 33 % 0.0 in 679.0 W/m2 CLR
14:01 22.8 °F 6.1 °F 1022.6 in WSW 13.0 mph 13.0 mph 34 % 0.0 in 679.0 W/m2 CLR
14:06 23.3 °F 5.7 °F 1022.6 in SW 8.0 mph 8.0 mph 32 % 0.0 in 679.0 W/m2 CLR
14:11 23.3 °F 5.7 °F 1022.6 in WSW 11.3 mph 11.3 mph 32 % 0.0 in 675.0 W/m2 CLR
14:16 23.3 °F 5.2 °F 1022.2 in SSW 9.3 mph 9.3 mph 31 % 0.0 in 675.0 W/m2 CLR
14:21 23.3 °F 6.2 °F 1022.2 in SW 13.0 mph 13.0 mph 33 % 0.0 in 671.0 W/m2 CLR
14:22 23.3 °F 5.7 °F 1022.2 in SW 13.0 mph 13.0 mph 32 % 0.0 in 671.0 W/m2 CLR
14:27 23.3 °F 5.2 °F 1022.2 in SSW 13.0 mph 13.0 mph 31 % 0.0 in 668.0 W/m2 CLR
14:32 23.3 °F 5.2 °F 1022.2 in SSW 7.4 mph 7.4 mph 31 % 0.0 in 664.0 W/m2 CLR
14:37 23.3 °F 4.8 °F 1022.2 in South 9.3 mph   30 % 0.0 in 663.0 W/m2 CLR
14:42 23.9 °F 4.8 °F 1022.2 in SSW 7.4 mph 7.4 mph 29 % 0.0 in 657.0 W/m2 CLR
14:47 23.9 °F 5.3 °F 1021.9 in West 11.3 mph 11.3 mph 30 % 0.0 in 654.0 W/m2 CLR
14:52 23.9 °F 4.8 °F 1021.9 in SSW 14.8 mph 14.8 mph 29 % 0.0 in 647.0 W/m2 CLR
14:57 23.9 °F 4.8 °F 1021.9 in Calm     29 % 0.0 in 643.0 W/m2 CLR
15:02 24.4 °F 5.2 °F 1021.9 in SW 7.4 mph 7.4 mph 29 % 0.0 in 638.0 W/m2 CLR
15:07 24.4 °F 4.7 °F 1021.9 in West 9.3 mph 9.3 mph 28 % 0.0 in 631.0 W/m2 CLR
15:12 24.4 °F 4.7 °F 1021.9 in Calm     28 % 0.0 in 624.0 W/m2 CLR
15:17 23.9 °F 4.3 °F 1021.9 in South 13.0 mph 13.0 mph 28 % 0.0 in 619.0 W/m2 CLR
15:22 24.4 °F 4.7 °F 1021.6 in West 16.7 mph 16.7 mph 28 % 0.0 in 610.0 W/m2 CLR
15:27 24.4 °F 4.2 °F 1021.6 in West 1.9 mph 1.9 mph 27 % 0.0 in 605.0 W/m2 CLR
15:32 24.4 °F 4.2 °F 1021.6 in Calm     27 % 0.0 in 596.0 W/m2 CLR
15:37 24.4 °F 4.7 °F 1021.6 in West 14.8 mph 14.8 mph 28 % 0.0 in 587.0 W/m2 CLR
15:42 24.4 °F 4.2 °F 1021.6 in WSW 5.6 mph 5.6 mph 27 % 0.0 in 578.0 W/m2 CLR
15:47 25.0 °F 4.7 °F 1021.6 in SW 7.4 mph 7.4 mph 27 % 0.0 in 571.0 W/m2 CLR
15:52 23.9 °F 4.3 °F 1021.6 in West 1.9 mph 1.9 mph 28 % 0.0 in 561.0 W/m2 CLR
15:57 23.9 °F 3.7 °F 1021.2 in WSW 11.1 mph 11.1 mph 27 % 0.0 in 548.0 W/m2 CLR
16:02 24.4 °F 4.7 °F 1021.6 in Calm     28 % 0.0 in 540.0 W/m2 CLR
16:07 24.4 °F 4.7 °F 1021.2 in West 9.3 mph 9.3 mph 28 % 0.0 in 531.0 W/m2 CLR
16:12 23.9 °F 4.3 °F 1021.2 in Calm     28 % 0.0 in 520.0 W/m2 CLR
16:17 23.9 °F 4.8 °F 1021.2 in West 16.7 mph 16.7 mph 29 % 0.0 in 506.0 W/m2 CLR
16:22 24.4 °F 4.7 °F 1021.2 in Calm     28 % 0.0 in 496.0 W/m2 CLR
16:27 24.4 °F 5.2 °F 1021.2 in Calm     29 % 0.0 in 483.0 W/m2 CLR
16:32 24.4 °F 5.2 °F 1021.2 in West 9.7 mph 9.7 mph 29 % 0.0 in 473.0 W/m2 CLR
16:37 24.4 °F 5.2 °F 1021.2 in NW 9.3 mph 9.3 mph 29 % 0.0 in 457.0 W/m2 CLR
16:42 23.9 °F 4.8 °F 1021.2 in WNW 13.0 mph 13.0 mph 29 % 0.0 in 446.0 W/m2 CLR
16:47 23.9 °F 4.8 °F 1021.2 in Calm     29 % 0.0 in 434.0 W/m2 CLR
16:52 24.4 °F 5.2 °F 1021.2 in WNW 13.0 mph 13.0 mph 29 % 0.0 in 420.0 W/m2 CLR
16:57 24.4 °F 5.7 °F 1021.2 in West 11.3 mph 11.3 mph 30 % 0.0 in 406.0 W/m2 CLR
17:02 24.4 °F 5.7 °F 1021.2 in West 11.3 mph 11.3 mph 30 % 0.0 in 390.0 W/m2 CLR
17:07 23.9 °F 4.8 °F 1021.2 in Calm     29 % 0.0 in 378.0 W/m2 CLR
17:12 23.9 °F 5.3 °F 1020.9 in WNW 5.6 mph 5.6 mph 30 % 0.0 in 364.0 W/m2 CLR
17:17 24.4 °F 5.7 °F 1021.2 in WNW 11.1 mph 11.1 mph 30 % 0.0 in 352.0 W/m2 CLR
17:22 24.4 °F 5.7 °F 1020.9 in Calm     30 % 0.0 in 334.0 W/m2 CLR
17:27 23.9 °F 4.8 °F 1020.9 in WNW 5.6 mph 5.6 mph 29 % 0.0 in 320.0 W/m2 CLR
17:32 23.9 °F 5.3 °F 1020.9 in WNW 13.0 mph 13.0 mph 30 % 0.0 in 309.0 W/m2 CLR
17:37 23.9 °F 5.3 °F 1020.9 in Calm     30 % 0.0 in 294.0 W/m2 CLR
17:42 23.9 °F 4.8 °F 1020.9 in West 3.7 mph 3.7 mph 29 % 0.0 in 276.0 W/m2 CLR
17:47 23.9 °F 4.8 °F 1020.9 in Calm     29 % 0.0 in 260.0 W/m2 CLR
17:52 23.3 °F 4.8 °F 1020.9 in West 5.6 mph 5.6 mph 30 % 0.0 in 243.0 W/m2 CLR
17:57 23.3 °F 4.8 °F 1020.9 in West 5.6 mph 5.6 mph 30 % 0.0 in 225.0 W/m2 CLR
18:07 22.8 °F 4.8 °F 1020.9 in West 5.6 mph 5.6 mph 31 % 0.0 in 186.0 W/m2 CLR
18:12 22.8 °F 4.8 °F 1020.9 in Calm     31 % 0.0 in 169.0 W/m2 CLR
18:17 22.2 °F 4.3 °F 1020.9 in West 9.3 mph 9.3 mph 31 % 0.0 in 151.0 W/m2 CLR
18:22 21.7 °F 3.8 °F 1020.9 in WNW 5.6 mph 5.6 mph 31 % 0.0 in 134.0 W/m2 CLR
18:27 21.1 °F 3.3 °F 1020.9 in Calm     31 % 0.0 in 114.0 W/m2 CLR
18:32 21.1 °F 3.8 °F 1020.9 in WNW 5.6 mph 5.6 mph 32 % 0.0 in 98.0 W/m2 CLR
18:37 20.6 °F 3.3 °F 1020.9 in Calm     32 % 0.0 in 81.0 W/m2 CLR
18:42 20.0 °F 2.8 °F 1020.9 in Calm     32 % 0.0 in 62.0 W/m2 FEW
18:47 19.4 °F 2.3 °F 1020.9 in Calm     32 % 0.0 in 54.0 W/m2 SCT
18:52 18.9 °F 1.8 °F 1020.9 in Calm     32 % 0.0 in 44.0 W/m2 SCT
18:57 18.3 °F 1.3 °F 1020.9 in Calm     32 % 0.0 in 32.0 W/m2 BKN
19:02 17.8 °F 1.3 °F 1021.2 in Calm     33 % 0.0 in 23.0 W/m2 BKN
19:07 17.2 °F 0.8 °F 1021.2 in Calm     33 % 0.0 in 14.0 W/m2 BKN
19:13 16.7 °F 0.3 °F 1021.2 in Calm     33 % 0.0 in 12.0 W/m2 BKN
19:18 16.1 °F 0.2 °F 1021.2 in Calm     34 % 0.0 in 11.0 W/m2 BKN
19:23 15.6 °F 0.1 °F 1021.2 in Calm     35 % 0.0 in 7.0 W/m2 BKN
19:28 15.0 °F -0.3 °F 1021.2 in Calm     35 % 0.0 in 5.0 W/m2 OVC
19:33 15.0 °F 0.1 °F 1021.2 in Calm     36 % 0.0 in 0.0 W/m2 OVC
19:38 15.0 °F 0.1 °F 1021.2 in Calm     36 % 0.0 in 0.0 W/m2 OVC
19:43 15.0 °F 0.4 °F 1021.2 in Calm     37 % 0.0 in 0.0 W/m2 CLR
19:48 15.0 °F 0.8 °F 1021.6 in Calm     38 % 0.0 in 0.0 W/m2 CLR
19:53 14.4 °F 0.7 °F 1021.2 in Calm     39 % 0.0 in 0.0 W/m2 CLR
19:58 14.4 °F 1.0 °F 1021.6 in Calm     40 % 0.0 in 0.0 W/m2 CLR
20:03 13.9 °F 0.8 °F 1021.6 in Calm     41 % 0.0 in 0.0 W/m2 CLR
20:08 13.9 °F 1.5 °F 1021.6 in Calm     43 % 0.0 in 0.0 W/m2 CLR
20:13 13.3 °F 1.0 °F 1021.6 in Calm     43 % 0.0 in 0.0 W/m2 CLR
20:18 13.3 °F 1.3 °F 1021.6 in Calm     44 % 0.0 in 0.0 W/m2 CLR
20:23 12.8 °F 1.1 °F 1021.6 in Calm     45 % 0.0 in 0.0 W/m2 CLR
20:28 12.8 °F 1.4 °F 1021.6 in Calm     46 % 0.0 in 0.0 W/m2 CLR
20:33 12.2 °F 1.2 °F 1021.6 in Calm     47 % 0.0 in 0.0 W/m2 CLR
20:38 12.2 °F 1.2 °F 1021.6 in Calm     47 % 0.0 in 0.0 W/m2 CLR
20:43 12.2 °F 1.5 °F 1021.6 in Calm     48 % 0.0 in 0.0 W/m2 CLR
20:48 12.2 °F 1.5 °F 1021.6 in Calm     48 % 0.0 in 0.0 W/m2 CLR
20:53 11.7 °F 1.3 °F 1021.6 in Calm     49 % 0.0 in 0.0 W/m2 CLR
20:58 11.7 °F 1.3 °F 1021.6 in Calm     49 % 0.0 in 0.0 W/m2 CLR
21:03 11.7 °F 1.6 °F 1021.9 in Calm     50 % 0.0 in 0.0 W/m2 CLR
21:08 11.1 °F 1.1 °F 1021.6 in Calm     50 % 0.0 in 0.0 W/m2 CLR
21:13 11.7 °F 1.6 °F 1021.9 in Calm     50 % 0.0 in 0.0 W/m2 CLR
21:18 11.7 °F 1.8 °F 1021.9 in Calm     51 % 0.0 in 0.0 W/m2 CLR
21:23 11.7 °F 2.1 °F 1021.9 in Calm     52 % 0.0 in 0.0 W/m2 CLR
21:28 11.1 °F 1.3 °F 1021.9 in Calm     51 % 0.0 in 0.0 W/m2 CLR
21:33 11.1 °F 1.3 °F 1021.9 in Calm     51 % 0.0 in 0.0 W/m2 CLR
21:38 11.1 °F 1.3 °F 1021.9 in Calm     51 % 0.0 in 0.0 W/m2 CLR
21:43 10.6 °F 1.1 °F 1022.2 in Calm     52 % 0.0 in 0.0 W/m2 CLR
21:48 10.6 °F 1.4 °F 1022.2 in Calm     53 % 0.0 in 0.0 W/m2 CLR
21:58 10.0 °F 0.8 °F 1022.2 in Calm     53 % 0.0 in 0.0 W/m2 CLR
22:03 9.4 °F 0.3 °F 1022.2 in Calm     53 % 0.0 in 0.0 W/m2 CLR
22:08 9.4 °F 0.3 °F 1022.2 in Calm     53 % 0.0 in 0.0 W/m2 CLR
22:13 10.6 °F 1.4 °F 1022.2 in Calm     53 % 0.0 in 0.0 W/m2 CLR
22:18 10.6 °F 1.4 °F 1022.2 in Calm     53 % 0.0 in 0.0 W/m2 CLR
22:23 10.0 °F 0.8 °F 1022.6 in Calm     53 % 0.0 in 0.0 W/m2 CLR
22:28 10.0 °F 0.8 °F 1022.6 in Calm     53 % 0.0 in 0.0 W/m2 CLR
22:33 9.4 °F 0.3 °F 1022.6 in Calm     53 % 0.0 in 0.0 W/m2 CLR
22:38 9.4 °F 0.6 °F 1022.6 in Calm     54 % 0.0 in 0.0 W/m2 CLR
22:43 9.4 °F 0.6 °F 1022.6 in Calm     54 % 0.0 in 0.0 W/m2 CLR
22:48 9.4 °F 0.6 °F 1022.6 in Calm     54 % 0.0 in 0.0 W/m2 CLR
22:53 9.4 °F 0.6 °F 1022.6 in Calm     54 % 0.0 in 0.0 W/m2 CLR
22:58 8.9 °F 0.3 °F 1022.6 in Calm     55 % 0.0 in 0.0 W/m2 CLR
23:03 8.9 °F 0.6 °F 1022.6 in Calm     56 % 0.0 in 0.0 W/m2 CLR
23:08 8.3 °F 0.1 °F 1022.6 in Calm     56 % 0.0 in 0.0 W/m2 CLR
23:13 8.9 °F 0.6 °F 1022.6 in Calm     56 % 0.0 in 0.0 W/m2 CLR
23:23 9.4 °F 1.3 °F 1022.6 in Calm     57 % 0.0 in 0.0 W/m2 CLR
23:28 8.9 °F 0.8 °F 1022.6 in Calm     57 % 0.0 in 0.0 W/m2 CLR
23:33 8.9 °F 1.1 °F 1022.6 in Calm     58 % 0.0 in 0.0 W/m2 CLR
23:38 8.9 °F 1.3 °F 1022.6 in Calm     59 % 0.0 in 0.0 W/m2 CLR
23:48 8.9 °F 1.3 °F 1022.6 in Calm     59 % 0.0 in 0.0 W/m2 CLR
23:53 8.9 °F 1.3 °F 1022.6 in Calm     59 % 0.0 in 0.0 W/m2 CLR
23:58 8.9 °F 1.3 °F 1022.6 in Calm     59 % 0.0 in 0.0 W/m2 CLR
Lo Temps de Massalio
Compliments of Weather Underground - 1.25 mb